Time;durP1;ratioP1;P1;durP2;ratioP2;P2;SDS_P1;SDS_P2;PMS_P1;PMS_P2;Temp;Humidity;BMP_temperature;BMP_pressure;BME280_temperature;BME280_humidity;BME280_pressure;Samples;Min_cycle;Max_cycle;Signal;HPM_P1;HPM_P2
2022/01/21 00:01:39;;;;;;;6.70;2.83;;;;;;;;;;6217352;23;20506;-65
2022/01/21 00:04:08;;;;;;;13.20;3.83;;;;;;;;;;6217621;23;20184;-65
2022/01/21 00:06:35;;;;;;;9.50;3.90;;;;;;;;;;6217153;23;20186;-65
2022/01/21 00:09:03;;;;;;;11.77;4.37;;;;;;;;;;6217420;23;20180;-69
2022/01/21 00:11:31;;;;;;;11.77;4.43;;;;;;;;;;6217438;23;20186;-66
2022/01/21 00:13:59;;;;;;;8.67;3.57;;;;;;;;;;6217560;23;20179;-65
2022/01/21 00:16:27;;;;;;;8.37;3.13;;;;;;;;;;6190783;23;20608;-66
2022/01/21 00:19:12;;;;;;;8.60;3.17;;;;;;;;;;6217366;23;20256;-66
2022/01/21 00:32:27;;;;;;;8.40;2.93;;;;;;;;;;6215983;23;20203;-65
2022/01/21 00:34:54;;;;;;;14.50;3.93;;;;;;;;;;6215827;23;20187;-64
2022/01/21 00:37:21;;;;;;;12.40;4.27;;;;;;;;;;6216493;23;20180;-65
2022/01/21 00:39:55;;;;;;;8.97;3.43;;;;;;;;;;6217051;23;20200;-65
2022/01/21 00:44:58;;;;;;;9.57;3.47;;;;;;;;;;6215566;23;20187;-65
2022/01/21 00:47:27;;;;;;;9.07;3.80;;;;;;;;;;6215735;23;20168;-66
2022/01/21 00:49:56;;;;;;;18.20;5.03;;;;;;;;;;6215745;23;20181;-65
2022/01/21 00:52:23;;;;;;;11.63;4.10;;;;;;;;;;6217243;23;20200;-65
2022/01/21 00:54:50;;;;;;;11.10;4.07;;;;;;;;;;6217018;23;20547;-65
2022/01/21 00:57:18;;;;;;;8.70;3.50;;;;;;;;;;6215643;23;20187;-65
2022/01/21 00:59:45;;;;;;;10.00;2.90;;;;;;;;;;6215599;23;20210;-65
2022/01/21 01:02:12;;;;;;;7.03;3.30;;;;;;;;;;6215557;23;20180;-65
2022/01/21 01:04:40;;;;;;;28.37;6.90;;;;;;;;;;6217058;23;20202;-65
2022/01/21 01:07:07;;;;;;;7.77;3.03;;;;;;;;;;6217062;23;20180;-64
2022/01/21 01:09:35;;;;;;;6.07;2.73;;;;;;;;;;6215540;23;20180;-65
2022/01/21 01:12:17;;;;;;;13.83;4.10;;;;;;;;;;6217010;23;20184;-65
2022/01/21 01:20:08;;;;;;;11.17;3.63;;;;;;;;;;6215429;23;20271;-65
2022/01/21 01:22:48;;;;;;;12.23;3.93;;;;;;;;;;6216909;23;20180;-65
2022/01/21 01:27:58;;;;;;;8.33;3.00;;;;;;;;;;6216916;23;20462;-65
2022/01/21 01:30:28;;;;;;;11.30;3.73;;;;;;;;;;6216218;23;20204;-65
2022/01/21 01:32:58;;;;;;;10.03;3.17;;;;;;;;;;6190255;23;20235;-65
2022/01/21 01:35:28;;;;;;;12.53;3.50;;;;;;;;;;6216748;23;20562;-65
2022/01/21 01:50:53;;;;;;;26.43;6.80;;;;;;;;;;6216386;23;20176;-65
2022/01/21 01:53:27;;;;;;;34.07;7.87;;;;;;;;;;6216499;23;20180;-65
2022/01/21 01:55:56;;;;;;;12.23;4.83;;;;;;;;;;6190119;23;20171;-65
2022/01/21 01:58:23;;;;;;;8.50;3.07;;;;;;;;;;6189984;23;20180;-65
2022/01/21 02:00:51;;;;;;;17.50;5.77;;;;;;;;;;6190115;23;20501;-65
2022/01/21 02:03:19;;;;;;;8.93;3.47;;;;;;;;;;6190206;23;20544;-65
2022/01/21 02:05:46;;;;;;;13.83;3.80;;;;;;;;;;6216445;23;20180;-65
2022/01/21 02:08:13;;;;;;;8.90;3.10;;;;;;;;;;6216282;23;20508;-68
2022/01/21 02:10:41;;;;;;;12.03;3.17;;;;;;;;;;6189885;23;20180;-68
2022/01/21 02:13:21;;;;;;;9.73;3.17;;;;;;;;;;6189822;23;20187;-67
2022/01/21 02:16:07;;;;;;;12.73;4.23;;;;;;;;;;6216535;23;20195;-69
2022/01/21 02:24:04;;;;;;;14.50;4.37;;;;;;;;;;6189519;23;20499;-64
2022/01/21 02:26:32;;;;;;;9.40;3.33;;;;;;;;;;6189567;23;20577;-65
2022/01/21 02:29:01;;;;;;;12.23;4.50;;;;;;;;;;6189643;23;20203;-65
2022/01/21 02:31:29;;;;;;;16.17;3.70;;;;;;;;;;6214881;23;20218;-65
2022/01/21 02:33:57;;;;;;;7.57;3.47;;;;;;;;;;6214587;23;20255;-64
2022/01/21 02:36:26;;;;;;;10.00;3.37;;;;;;;;;;6216031;23;20681;-65
2022/01/21 02:38:53;;;;;;;10.40;3.10;;;;;;;;;;6214627;23;20615;-64
2022/01/21 02:41:22;;;;;;;24.17;7.47;;;;;;;;;;6214991;23;20187;-65
2022/01/21 02:43:50;;;;;;;11.67;4.57;;;;;;;;;;6214366;23;20608;-66
2022/01/21 02:46:21;;;;;;;11.20;4.63;;;;;;;;;;6215814;23;20210;-64
2022/01/21 02:48:49;;;;;;;11.83;3.53;;;;;;;;;;6214777;23;20172;-65
2022/01/21 02:51:17;;;;;;;38.60;9.00;;;;;;;;;;6214272;23;20650;-65
2022/01/21 02:56:16;;;;;;;31.50;7.00;;;;;;;;;;6216086;23;20196;-65
2022/01/21 02:58:45;;;;;;;11.47;3.23;;;;;;;;;;6214739;23;20170;-64
2022/01/21 03:01:14;;;;;;;13.57;3.77;;;;;;;;;;6190771;23;20280;-65
2022/01/21 03:03:44;;;;;;;19.47;5.27;;;;;;;;;;6216790;23;20180;-64
2022/01/21 03:06:15;;;;;;;15.87;4.97;;;;;;;;;;6191779;23;20259;-65
2022/01/21 03:08:45;;;;;;;7.17;2.97;;;;;;;;;;6226580;23;20174;-65
2022/01/21 03:11:12;;;;;;;12.87;4.20;;;;;;;;;;6218096;23;20230;-67
2022/01/21 03:13:41;;;;;;;8.00;3.50;;;;;;;;;;6216628;23;20242;-65
2022/01/21 03:16:09;;;;;;;15.57;4.37;;;;;;;;;;6216688;23;20255;-65
2022/01/21 03:18:37;;;;;;;15.63;5.43;;;;;;;;;;6217618;23;20960;-65
2022/01/21 03:21:04;;;;;;;12.90;5.47;;;;;;;;;;6216499;23;20595;-65
2022/01/21 03:23:32;;;;;;;22.50;6.43;;;;;;;;;;6217887;23;20738;-65
2022/01/21 03:25:59;;;;;;;13.73;4.20;;;;;;;;;;6216627;23;20204;-65
2022/01/21 03:28:49;;;;;;;18.87;5.77;;;;;;;;;;6216194;23;20244;-65
2022/01/21 03:31:18;;;;;;;27.17;5.93;;;;;;;;;;6191528;23;20180;-65
2022/01/21 03:33:49;;;;;;;19.63;6.60;;;;;;;;;;6191281;23;20180;-65
2022/01/21 03:36:17;;;;;;;18.60;4.80;;;;;;;;;;6191565;23;20168;-64
2022/01/21 03:38:44;;;;;;;27.17;8.13;;;;;;;;;;6166793;23;20184;-65
2022/01/21 03:41:12;;;;;;;17.27;4.00;;;;;;;;;;6191200;23;20214;-69
2022/01/21 03:43:39;;;;;;;21.77;7.30;;;;;;;;;;6191348;23;20183;-65
2022/01/21 03:46:07;;;;;;;14.27;3.80;;;;;;;;;;6191314;23;20187;-68
2022/01/21 03:48:35;;;;;;;15.80;4.23;;;;;;;;;;6191279;23;20255;-68
2022/01/21 03:51:04;;;;;;;13.37;3.80;;;;;;;;;;6191267;23;20242;-69
2022/01/21 03:53:32;;;;;;;9.17;3.53;;;;;;;;;;6190912;23;20655;-65
2022/01/21 03:56:00;;;;;;;12.63;3.40;;;;;;;;;;6191359;23;20250;-66
2022/01/21 03:58:28;;;;;;;23.57;5.37;;;;;;;;;;6191302;23;20665;-67
2022/01/21 04:00:57;;;;;;;22.40;6.70;;;;;;;;;;6191177;23;20228;-66
2022/01/21 04:03:30;;;;;;;6.43;3.17;;;;;;;;;;6191410;23;20173;-66
2022/01/21 04:05:58;;;;;;;18.03;5.23;;;;;;;;;;6217441;23;20180;-67
2022/01/21 04:08:25;;;;;;;20.27;4.67;;;;;;;;;;6190636;23;20264;-67
2022/01/21 04:10:59;;;;;;;14.53;4.47;;;;;;;;;;6191226;23;20168;-67
2022/01/21 04:13:29;;;;;;;17.43;5.03;;;;;;;;;;6191225;23;20173;-67
2022/01/21 04:16:00;;;;;;;15.47;5.30;;;;;;;;;;6201024;23;20172;-67
2022/01/21 04:18:30;;;;;;;11.00;4.13;;;;;;;;;;6191083;23;20188;-66
2022/01/21 04:21:00;;;;;;;10.47;3.43;;;;;;;;;;6200869;23;20192;-67
2022/01/21 04:23:30;;;;;;;20.17;5.97;;;;;;;;;;6190794;23;20230;-67
2022/01/21 04:25:57;;;;;;;7.87;2.93;;;;;;;;;;6190752;23;20180;-66
2022/01/21 04:28:25;;;;;;;20.77;5.50;;;;;;;;;;6190991;23;20263;-66
2022/01/21 04:30:57;;;;;;;10.53;3.40;;;;;;;;;;6214792;23;20204;-66
2022/01/21 04:33:32;;;;;;;13.53;3.00;;;;;;;;;;6225951;23;20167;-66
2022/01/21 04:36:04;;;;;;;14.10;4.43;;;;;;;;;;6216115;23;20168;-67
2022/01/21 04:38:34;;;;;;;15.47;4.47;;;;;;;;;;6216048;23;20191;-67
2022/01/21 04:41:18;;;;;;;12.53;3.73;;;;;;;;;;6215889;23;20227;-67
2022/01/21 04:49:10;;;;;;;20.30;4.77;;;;;;;;;;6225743;23;20178;-65
2022/01/21 04:51:48;;;;;;;5.70;2.87;;;;;;;;;;6215724;23;20192;-64
2022/01/21 04:54:16;;;;;;;8.17;2.20;;;;;;;;;;6226982;23;20243;-68
2022/01/21 04:56:45;;;;;;;23.90;3.47;;;;;;;;;;6215730;23;20234;-69
2022/01/21 04:59:12;;;;;;;4.90;2.00;;;;;;;;;;6215516;23;20628;-69
2022/01/21 05:01:42;;;;;;;9.87;3.20;;;;;;;;;;6212003;23;20196;-67
2022/01/21 05:04:10;;;;;;;15.80;3.20;;;;;;;;;;6214985;23;20187;-66
2022/01/21 05:06:39;;;;;;;16.27;5.30;;;;;;;;;;6212394;23;20191;-66
2022/01/21 05:09:06;;;;;;;8.50;2.70;;;;;;;;;;6212395;23;20206;-65
2022/01/21 05:11:37;;;;;;;15.97;4.60;;;;;;;;;;6213226;23;20188;-65
2022/01/21 05:16:48;;;;;;;10.40;2.70;;;;;;;;;;6212626;23;20168;-66
2022/01/21 05:19:18;;;;;;;18.03;3.60;;;;;;;;;;6213671;23;20168;-66
2022/01/21 05:22:06;;;;;;;9.13;3.13;;;;;;;;;;6215003;23;20229;-65
2022/01/21 05:24:39;;;;;;;11.40;2.83;;;;;;;;;;6214114;23;20204;-65
2022/01/21 05:27:08;;;;;;;5.83;2.50;;;;;;;;;;6214968;23;20180;-65
2022/01/21 05:29:46;;;;;;;10.07;4.00;;;;;;;;;;6219018;23;20208;-65
2022/01/21 05:32:20;;;;;;;6.10;2.50;;;;;;;;;;6214664;23;20247;-65
2022/01/21 05:35:00;;;;;;;9.40;3.27;;;;;;;;;;6216321;23;20255;-65
2022/01/21 05:37:40;;;;;;;8.80;2.40;;;;;;;;;;6224567;23;20179;-66
2022/01/21 05:40:27;;;;;;;6.33;2.43;;;;;;;;;;6215456;23;20852;-68
2022/01/21 05:43:00;;;;;;;8.93;2.30;;;;;;;;;;6224411;23;20632;-67
2022/01/21 05:48:28;;;;;;;38.47;8.40;;;;;;;;;;6215778;23;20500;-67
2022/01/21 05:51:09;;;;;;;8.93;3.10;;;;;;;;;;6216135;23;20176;-65
2022/01/21 05:53:52;;;;;;;11.27;3.27;;;;;;;;;;6214568;23;20168;-67
2022/01/21 05:56:30;;;;;;;12.10;2.73;;;;;;;;;;6214764;23;20172;-67
2022/01/21 05:59:07;;;;;;;11.20;3.37;;;;;;;;;;6214354;23;20175;-68
2022/01/21 06:01:36;;;;;;;5.57;2.67;;;;;;;;;;6213878;23;20222;-68
2022/01/21 06:04:06;;;;;;;22.33;6.43;;;;;;;;;;6216050;23;20180;-66
2022/01/21 06:06:33;;;;;;;13.23;2.90;;;;;;;;;;6214652;23;20239;-69
2022/01/21 06:09:01;;;;;;;3.83;2.23;;;;;;;;;;6189865;23;20519;-68
2022/01/21 06:11:29;;;;;;;14.13;3.20;;;;;;;;;;6214421;23;20180;-66
2022/01/21 06:13:56;;;;;;;7.50;3.30;;;;;;;;;;6215999;23;20180;-67
2022/01/21 06:16:23;;;;;;;10.23;3.33;;;;;;;;;;6213684;23;20258;-65
2022/01/21 06:18:51;;;;;;;11.47;3.67;;;;;;;;;;6214492;23;20184;-67
2022/01/21 06:21:18;;;;;;;7.90;2.13;;;;;;;;;;6215762;23;20204;-69
2022/01/21 06:23:45;;;;;;;13.10;3.30;;;;;;;;;;6215546;23;20632;-65
2022/01/21 06:26:13;;;;;;;7.97;2.40;;;;;;;;;;6214418;23;20180;-66
2022/01/21 06:28:40;;;;;;;16.60;4.80;;;;;;;;;;6215744;23;20222;-69
2022/01/21 06:31:07;;;;;;;20.27;4.43;;;;;;;;;;6225083;23;20168;-65
2022/01/21 06:33:35;;;;;;;19.80;3.10;;;;;;;;;;6215309;23;20187;-67
2022/01/21 06:36:02;;;;;;;13.37;3.23;;;;;;;;;;6215282;23;20184;-65
2022/01/21 06:38:29;;;;;;;9.07;3.13;;;;;;;;;;6215745;23;20275;-66
2022/01/21 06:40:57;;;;;;;9.27;3.30;;;;;;;;;;6215674;23;20214;-66
2022/01/21 06:43:24;;;;;;;10.20;2.77;;;;;;;;;;6215705;23;20233;-66
2022/01/21 06:45:51;;;;;;;9.63;3.23;;;;;;;;;;6214771;23;20192;-65
2022/01/21 06:48:18;;;;;;;17.60;6.50;;;;;;;;;;6215705;23;20180;-67
2022/01/21 06:50:45;;;;;;;13.33;3.37;;;;;;;;;;6189357;23;20263;-65
2022/01/21 06:53:12;;;;;;;9.80;2.83;;;;;;;;;;6215991;23;20259;-65
2022/01/21 06:55:40;;;;;;;12.60;2.93;;;;;;;;;;6216159;23;20237;-65
2022/01/21 06:58:07;;;;;;;8.30;3.07;;;;;;;;;;6215874;23;20183;-64
2022/01/21 07:00:34;;;;;;;10.43;3.60;;;;;;;;;;6215101;23;20235;-66
2022/01/21 07:03:02;;;;;;;9.67;3.30;;;;;;;;;;6215875;23;20250;-65
2022/01/21 07:05:30;;;;;;;9.57;2.83;;;;;;;;;;6215936;23;20206;-67
2022/01/21 07:07:59;;;;;;;26.37;8.67;;;;;;;;;;6215873;23;20180;-69
2022/01/21 07:10:27;;;;;;;11.37;4.30;;;;;;;;;;6215929;23;20234;-68
2022/01/21 07:12:54;;;;;;;8.77;4.57;;;;;;;;;;6215869;23;20187;-67
2022/01/21 07:15:22;;;;;;;12.00;4.13;;;;;;;;;;6215113;23;20184;-66
2022/01/21 07:17:52;;;;;;;8.73;4.80;;;;;;;;;;6215857;23;20222;-66
2022/01/21 07:20:20;;;;;;;11.50;5.50;;;;;;;;;;6190107;23;20488;-66
2022/01/21 07:22:48;;;;;;;21.03;5.57;;;;;;;;;;6189371;23;20180;-67
2022/01/21 07:25:16;;;;;;;11.77;4.23;;;;;;;;;;6189673;23;20186;-67
2022/01/21 07:27:49;;;;;;;9.93;3.73;;;;;;;;;;6189466;23;20175;-66
2022/01/21 07:30:17;;;;;;;6.30;3.50;;;;;;;;;;6214701;23;20204;-66
2022/01/21 07:32:44;;;;;;;7.83;3.23;;;;;;;;;;6215730;23;20180;-64
2022/01/21 07:35:11;;;;;;;12.03;4.50;;;;;;;;;;6215820;23;20543;-64
2022/01/21 07:37:59;;;;;;;24.10;5.03;;;;;;;;;;6215816;23;20168;-64
2022/01/21 07:40:26;;;;;;;17.27;5.80;;;;;;;;;;6215752;23;20267;-66
2022/01/21 07:42:54;;;;;;;15.40;3.80;;;;;;;;;;6189506;23;20230;-66
2022/01/21 07:45:21;;;;;;;9.17;3.83;;;;;;;;;;6214856;23;20631;-65
2022/01/21 07:47:48;;;;;;;7.60;3.37;;;;;;;;;;6216721;23;20234;-67
2022/01/21 07:50:16;;;;;;;8.10;3.43;;;;;;;;;;6217751;23;20181;-66
2022/01/21 07:52:43;;;;;;;12.87;4.03;;;;;;;;;;6217740;23;20186;-67
2022/01/21 07:55:11;;;;;;;6.23;3.37;;;;;;;;;;6217375;23;20207;-68
2022/01/21 07:57:39;;;;;;;12.70;5.93;;;;;;;;;;6217296;23;20179;-68
2022/01/21 08:00:07;;;;;;;8.63;4.50;;;;;;;;;;6216643;23;20226;-67
2022/01/21 08:02:39;;;;;;;7.50;3.77;;;;;;;;;;6217200;23;20176;-66
2022/01/21 08:05:07;;;;;;;12.27;5.10;;;;;;;;;;6217414;23;20207;-66
2022/01/21 08:07:34;;;;;;;15.63;5.00;;;;;;;;;;6217363;23;20340;-67
2022/01/21 08:10:02;;;;;;;14.27;5.53;;;;;;;;;;6217239;23;20657;-64
2022/01/21 08:12:30;;;;;;;11.57;4.57;;;;;;;;;;6217078;23;20188;-64
2022/01/21 08:14:57;;;;;;;13.60;5.33;;;;;;;;;;6216665;23;20238;-64
2022/01/21 08:17:24;;;;;;;13.80;5.73;;;;;;;;;;6190706;23;20184;-67
2022/01/21 08:19:51;;;;;;;10.37;4.07;;;;;;;;;;6217340;23;20180;-63
2022/01/21 08:22:20;;;;;;;12.73;4.30;;;;;;;;;;6216978;23;20714;-64
2022/01/21 08:24:48;;;;;;;10.33;3.67;;;;;;;;;;6217453;23;20180;-64
2022/01/21 08:27:16;;;;;;;11.17;5.33;;;;;;;;;;6217438;23;20186;-66
2022/01/21 08:29:43;;;;;;;7.33;3.23;;;;;;;;;;6216091;23;20265;-65
2022/01/21 08:32:11;;;;;;;13.60;3.90;;;;;;;;;;6217271;23;21093;-66
2022/01/21 08:34:38;;;;;;;7.83;3.63;;;;;;;;;;6216795;23;20471;-63
2022/01/21 08:37:06;;;;;;;11.90;4.47;;;;;;;;;;6217268;23;20180;-65
2022/01/21 08:39:33;;;;;;;9.23;3.80;;;;;;;;;;6217057;23;20186;-65
2022/01/21 08:42:02;;;;;;;14.17;4.13;;;;;;;;;;6217079;23;20505;-65
2022/01/21 08:44:29;;;;;;;7.33;3.33;;;;;;;;;;6216005;23;20204;-67
2022/01/21 08:46:56;;;;;;;13.23;3.87;;;;;;;;;;6216969;23;20180;-66
2022/01/21 08:49:40;;;;;;;18.70;5.50;;;;;;;;;;6216964;23;20164;-67
2022/01/21 08:52:07;;;;;;;13.67;4.20;;;;;;;;;;6216721;23;20263;-67
2022/01/21 08:54:35;;;;;;;9.67;3.50;;;;;;;;;;6216783;23;20180;-68
2022/01/21 08:57:02;;;;;;;15.40;5.13;;;;;;;;;;6217033;23;20238;-66
2022/01/21 08:59:31;;;;;;;44.03;17.77;;;;;;;;;;6215336;23;20206;-67
2022/01/21 09:01:58;;;;;;;27.50;9.57;;;;;;;;;;6216701;23;20506;-69
2022/01/21 09:04:27;;;;;;;14.03;7.77;;;;;;;;;;6216977;23;20214;-67
2022/01/21 09:06:54;;;;;;;10.77;5.13;;;;;;;;;;6216742;23;20258;-67
2022/01/21 09:09:21;;;;;;;12.93;5.33;;;;;;;;;;6190463;23;20255;-67
2022/01/21 09:11:50;;;;;;;11.40;3.53;;;;;;;;;;6216811;23;20180;-67
2022/01/21 09:14:17;;;;;;;8.73;4.50;;;;;;;;;;6215918;23;20180;-69
2022/01/21 09:16:45;;;;;;;10.10;4.77;;;;;;;;;;6216616;23;20180;-67
2022/01/21 09:19:12;;;;;;;13.53;5.30;;;;;;;;;;6216380;23;20663;-66
2022/01/21 09:21:42;;;;;;;10.63;4.90;;;;;;;;;;6216620;23;20208;-67
2022/01/21 09:24:09;;;;;;;12.97;3.83;;;;;;;;;;6216367;23;20604;-67
2022/01/21 09:26:37;;;;;;;5.53;3.03;;;;;;;;;;6216710;23;20180;-66
2022/01/21 09:29:05;;;;;;;18.83;5.03;;;;;;;;;;6215463;23;20711;-65
2022/01/21 09:31:33;;;;;;;17.77;6.50;;;;;;;;;;6216691;23;20172;-66
2022/01/21 09:34:21;;;;;;;6.93;3.00;;;;;;;;;;6216652;23;20180;-69
2022/01/21 09:36:48;;;;;;;12.33;3.73;;;;;;;;;;6216545;23;20255;-66
2022/01/21 09:39:15;;;;;;;10.77;3.17;;;;;;;;;;6216643;23;20184;-69
2022/01/21 09:41:43;;;;;;;13.17;4.37;;;;;;;;;;6216500;23;20214;-67
2022/01/21 09:44:15;;;;;;;15.77;5.00;;;;;;;;;;6215899;23;20180;-66
2022/01/21 09:46:45;;;;;;;6.87;2.83;;;;;;;;;;6226356;23;20537;-70
2022/01/21 09:51:49;;;;;;;12.07;3.63;;;;;;;;;;6226311;23;20237;-67
2022/01/21 09:54:17;;;;;;;16.33;4.83;;;;;;;;;;6216379;23;20190;-69
2022/01/21 09:56:45;;;;;;;9.50;2.87;;;;;;;;;;6216128;23;20226;-69
2022/01/21 09:59:16;;;;;;;7.73;3.23;;;;;;;;;;6189530;23;20214;-67
2022/01/21 10:01:49;;;;;;;5.50;2.87;;;;;;;;;;6216257;23;20223;-64
2022/01/21 10:04:18;;;;;;;9.30;2.70;;;;;;;;;;6216310;23;20199;-65
2022/01/21 10:06:46;;;;;;;6.77;2.50;;;;;;;;;;6190070;23;20270;-64
2022/01/21 10:09:21;;;;;;;7.60;3.20;;;;;;;;;;6216092;23;20210;-64
2022/01/21 10:11:50;;;;;;;4.97;2.27;;;;;;;;;;6215796;23;20171;-67
2022/01/21 10:14:22;;;;;;;6.33;2.97;;;;;;;;;;6215836;23;20187;-69
2022/01/21 10:16:51;;;;;;;7.77;3.00;;;;;;;;;;6226030;23;20221;-64
2022/01/21 10:19:25;;;;;;;15.93;5.73;;;;;;;;;;6215909;23;20474;-66
2022/01/21 10:22:12;;;;;;;9.43;3.20;;;;;;;;;;6225933;23;20273;-69
2022/01/21 10:25:01;;;;;;;13.90;3.30;;;;;;;;;;6225953;23;20612;-72
2022/01/21 10:27:32;;;;;;;6.80;2.73;;;;;;;;;;6215518;23;20168;-68
2022/01/21 10:30:00;;;;;;;9.47;2.83;;;;;;;;;;6215956;23;20262;-69
2022/01/21 10:32:36;;;;;;;6.70;2.40;;;;;;;;;;6216083;23;20180;-69
2022/01/21 10:35:30;;;;;;;8.70;3.60;;;;;;;;;;6215773;23;20612;-69
2022/01/21 10:38:29;;;;;;;8.90;2.77;;;;;;;;;;6199690;23;20167;-69
2022/01/21 10:41:08;;;;;;;7.20;2.70;;;;;;;;;;6187949;23;20191;-70
2022/01/21 10:43:35;;;;;;;7.73;3.93;;;;;;;;;;6215473;23;20168;-68
2022/01/21 10:46:04;;;;;;;12.23;5.30;;;;;;;;;;6215803;23;20191;-69
2022/01/21 10:48:33;;;;;;;16.30;5.00;;;;;;;;;;6215949;23;20180;-69
2022/01/21 10:51:25;;;;;;;8.60;3.57;;;;;;;;;;6189587;23;20631;-71
2022/01/21 10:53:54;;;;;;;17.23;5.60;;;;;;;;;;6215885;23;20168;-69
2022/01/21 10:56:22;;;;;;;17.30;5.17;;;;;;;;;;6215411;23;20184;-68
2022/01/21 10:58:53;;;;;;;23.43;6.27;;;;;;;;;;6215251;23;20642;-70
2022/01/21 11:01:28;;;;;;;21.23;6.63;;;;;;;;;;6225646;23;20631;-69
2022/01/21 11:04:11;;;;;;;12.03;3.90;;;;;;;;;;6190349;23;20168;-71
2022/01/21 11:06:54;;;;;;;13.40;4.90;;;;;;;;;;6215988;23;20169;-70
2022/01/21 11:09:29;;;;;;;11.73;4.73;;;;;;;;;;6215856;23;20218;-70
2022/01/21 11:12:11;;;;;;;18.83;6.37;;;;;;;;;;6224966;23;20247;-68
2022/01/21 11:14:55;;;;;;;9.63;3.43;;;;;;;;;;6215884;23;20168;-67
2022/01/21 11:17:22;;;;;;;13.23;3.87;;;;;;;;;;6225609;23;20175;-66
2022/01/21 11:20:13;;;;;;;10.60;4.50;;;;;;;;;;6215915;23;20180;-64
2022/01/21 11:22:56;;;;;;;10.70;3.90;;;;;;;;;;6216924;23;20202;-67
2022/01/21 11:25:41;;;;;;;10.37;3.60;;;;;;;;;;6201390;23;20553;-66
2022/01/21 11:28:16;;;;;;;11.87;3.27;;;;;;;;;;6217252;23;20214;-68
2022/01/21 11:30:44;;;;;;;14.20;3.40;;;;;;;;;;6217370;23;20204;-66
2022/01/21 11:33:11;;;;;;;7.97;3.30;;;;;;;;;;6217826;23;20184;-67
2022/01/21 11:35:39;;;;;;;10.87;2.73;;;;;;;;;;6217695;23;20180;-70
2022/01/21 11:38:09;;;;;;;14.13;3.40;;;;;;;;;;6217707;23;20211;-66
2022/01/21 11:40:37;;;;;;;8.60;2.80;;;;;;;;;;6217756;23;20187;-65
2022/01/21 11:43:05;;;;;;;6.27;2.33;;;;;;;;;;6216061;23;20208;-66
2022/01/21 11:48:51;;;;;;;8.50;2.63;;;;;;;;;;6217689;23;20171;-67
2022/01/21 11:51:22;;;;;;;6.00;2.07;;;;;;;;;;6191945;23;20662;-68
2022/01/21 11:53:54;;;;;;;10.27;3.60;;;;;;;;;;6217336;23;20483;-65
2022/01/21 11:56:28;;;;;;;10.17;2.80;;;;;;;;;;6216519;23;20168;-66
2022/01/21 11:59:19;;;;;;;9.90;3.10;;;;;;;;;;6216949;23;20223;-68
2022/01/21 12:01:47;;;;;;;6.13;2.07;;;;;;;;;;6227164;23;20188;-70
2022/01/21 12:04:17;;;;;;;5.23;2.50;;;;;;;;;;6217350;23;20216;-67
2022/01/21 12:06:44;;;;;;;7.60;3.30;;;;;;;;;;6190707;23;20192;-68
2022/01/21 12:09:14;;;;;;;10.20;3.30;;;;;;;;;;6217417;23;20187;-67
2022/01/21 12:11:41;;;;;;;16.50;4.80;;;;;;;;;;6216346;23;20620;-69
2022/01/21 12:14:33;;;;;;;6.57;2.60;;;;;;;;;;6217316;23;20187;-69
2022/01/21 12:17:13;;;;;;;13.10;4.23;;;;;;;;;;6217353;23;20180;-68
2022/01/21 12:19:41;;;;;;;9.20;3.63;;;;;;;;;;6217422;23;20172;-68
2022/01/21 12:22:18;;;;;;;11.33;4.07;;;;;;;;;;6217257;23;20214;-69
2022/01/21 12:24:54;;;;;;;13.97;5.23;;;;;;;;;;6216938;23;20501;-68
2022/01/21 12:27:25;;;;;;;12.13;4.87;;;;;;;;;;6216608;23;20168;-67
2022/01/21 12:30:27;;;;;;;13.63;4.70;;;;;;;;;;6221208;23;20690;-68
2022/01/21 12:32:57;;;;;;;19.33;6.10;;;;;;;;;;6190368;23;20172;-67
2022/01/21 12:35:56;;;;;;;21.03;6.47;;;;;;;;;;6203705;23;20180;-66
2022/01/21 12:41:17;;;;;;;11.23;4.70;;;;;;;;;;6216373;23;20230;-68
2022/01/21 12:43:56;;;;;;;14.13;5.40;;;;;;;;;;6217100;23;20188;-69
2022/01/21 12:46:24;;;;;;;12.20;4.83;;;;;;;;;;6217196;23;20195;-67
2022/01/21 12:48:52;;;;;;;11.37;4.57;;;;;;;;;;6216866;23;20187;-67
2022/01/21 12:51:45;;;;;;;14.63;5.40;;;;;;;;;;6226230;23;20199;-68
2022/01/21 12:56:58;;;;;;;7.50;3.70;;;;;;;;;;6225515;23;20168;-66
2022/01/21 12:59:29;;;;;;;5.47;2.80;;;;;;;;;;6217058;23;20176;-68
2022/01/21 13:01:57;;;;;;;7.43;3.57;;;;;;;;;;6216815;23;20192;-69
2022/01/21 13:04:47;;;;;;;8.07;3.03;;;;;;;;;;6216403;23;20187;-70
2022/01/21 13:07:23;;;;;;;10.40;4.23;;;;;;;;;;6216981;23;20172;-70
2022/01/21 13:09:51;;;;;;;6.57;2.57;;;;;;;;;;6217009;23;20168;-72
2022/01/21 13:12:21;;;;;;;17.47;6.23;;;;;;;;;;6216198;23;20180;-69
2022/01/21 13:14:53;;;;;;;15.07;4.47;;;;;;;;;;6216719;23;20596;-68
2022/01/21 13:17:22;;;;;;;6.07;3.00;;;;;;;;;;6190067;23;20168;-69
2022/01/21 13:19:52;;;;;;;9.93;4.33;;;;;;;;;;6190233;23;20180;-72
2022/01/21 13:22:21;;;;;;;9.17;3.50;;;;;;;;;;6216759;23;20267;-68
2022/01/21 13:25:06;;;;;;;7.43;3.07;;;;;;;;;;6216070;23;20180;-69
2022/01/21 13:27:43;;;;;;;12.87;4.60;;;;;;;;;;6216740;23;20251;-69
2022/01/21 13:30:12;;;;;;;12.83;4.27;;;;;;;;;;6216583;23;20204;-68
2022/01/21 13:32:39;;;;;;;10.50;5.00;;;;;;;;;;6190637;23;20184;-69
2022/01/21 13:35:13;;;;;;;11.93;5.70;;;;;;;;;;6215942;23;20180;-68
2022/01/21 13:37:42;;;;;;;17.73;6.60;;;;;;;;;;6222432;23;20168;-69
2022/01/21 13:40:09;;;;;;;18.63;5.10;;;;;;;;;;6216456;23;20183;-69
2022/01/21 13:42:37;;;;;;;13.47;5.13;;;;;;;;;;6216181;23;20282;-69
2022/01/21 13:45:08;;;;;;;20.67;7.20;;;;;;;;;;6215701;23;20543;-70
2022/01/21 13:47:39;;;;;;;7.47;3.07;;;;;;;;;;6216186;23;20307;-69
2022/01/21 13:50:09;;;;;;;12.73;5.03;;;;;;;;;;6216335;23;20219;-69
2022/01/21 13:52:46;;;;;;;11.07;4.77;;;;;;;;;;6215157;23;20175;-69
2022/01/21 13:55:30;;;;;;;28.83;7.43;;;;;;;;;;6216595;23;20168;-69
2022/01/21 13:57:59;;;;;;;10.07;3.83;;;;;;;;;;6199818;23;20168;-69
2022/01/21 14:00:37;;;;;;;9.43;3.37;;;;;;;;;;6216477;23;20210;-69
2022/01/21 14:03:12;;;;;;;9.47;4.00;;;;;;;;;;6225965;23;20245;-69
2022/01/21 14:05:44;;;;;;;12.03;4.93;;;;;;;;;;6215813;23;20175;-69
2022/01/21 14:08:14;;;;;;;21.70;6.80;;;;;;;;;;6216398;23;20169;-69
2022/01/21 14:10:41;;;;;;;11.33;4.43;;;;;;;;;;6216534;23;20180;-69
2022/01/21 14:13:09;;;;;;;11.23;4.60;;;;;;;;;;6216239;23;20180;-69
2022/01/21 14:15:36;;;;;;;8.13;3.67;;;;;;;;;;6216810;23;20258;-69
2022/01/21 14:18:04;;;;;;;15.67;4.90;;;;;;;;;;6189080;23;20542;-69
2022/01/21 14:20:32;;;;;;;9.33;3.93;;;;;;;;;;6215366;23;20223;-69
2022/01/21 14:22:59;;;;;;;14.00;3.40;;;;;;;;;;6189943;23;20208;-69
2022/01/21 14:25:27;;;;;;;12.03;5.73;;;;;;;;;;6216030;23;20187;-69
2022/01/21 14:27:54;;;;;;;10.70;4.27;;;;;;;;;;6216057;23;20542;-70
2022/01/21 14:30:23;;;;;;;8.60;4.37;;;;;;;;;;6215816;23;20706;-69
2022/01/21 14:32:52;;;;;;;11.07;3.00;;;;;;;;;;6215763;23;20483;-69
2022/01/21 14:35:27;;;;;;;12.67;3.90;;;;;;;;;;6214664;23;20187;-69
2022/01/21 14:38:02;;;;;;;11.23;3.97;;;;;;;;;;6225638;23;20190;-69
2022/01/21 14:40:38;;;;;;;10.57;3.20;;;;;;;;;;6216098;23;20218;-69
2022/01/21 14:43:11;;;;;;;7.87;4.07;;;;;;;;;;6215932;23;20223;-69
2022/01/21 14:45:41;;;;;;;11.97;4.47;;;;;;;;;;6225768;23;20179;-69
2022/01/21 14:48:20;;;;;;;12.43;4.87;;;;;;;;;;6215881;23;20176;-69
2022/01/21 14:50:49;;;;;;;9.20;4.10;;;;;;;;;;6225384;23;20222;-69
2022/01/21 14:53:17;;;;;;;11.00;5.23;;;;;;;;;;6225748;23;20647;-71
2022/01/21 14:55:49;;;;;;;9.10;4.10;;;;;;;;;;6215677;23;20191;-70
2022/01/21 14:58:20;;;;;;;18.17;4.70;;;;;;;;;;6225694;23;20168;-74
2022/01/21 15:01:01;;;;;;;10.30;4.80;;;;;;;;;;6216115;23;20168;-71
2022/01/21 15:03:31;;;;;;;10.23;4.13;;;;;;;;;;6225692;23;20191;-73
2022/01/21 15:06:24;;;;;;;11.13;3.97;;;;;;;;;;6215542;23;20230;-71
2022/01/21 15:09:00;;;;;;;12.33;5.63;;;;;;;;;;6183739;23;20200;-70
2022/01/21 15:16:55;;;;;;;14.07;6.07;;;;;;;;;;6216002;23;20235;-70
2022/01/21 15:19:36;;;;;;;9.00;4.23;;;;;;;;;;6215466;23;20697;-70
2022/01/21 15:22:09;;;;;;;14.73;5.43;;;;;;;;;;6199073;23;20734;-69
2022/01/21 15:24:38;;;;;;;12.50;6.50;;;;;;;;;;6215826;23;20169;-71
2022/01/21 15:27:06;;;;;;;8.23;5.17;;;;;;;;;;6215562;23;20505;-72
2022/01/21 15:29:35;;;;;;;12.57;4.97;;;;;;;;;;6215398;23;20208;-72
2022/01/21 15:32:07;;;;;;;11.57;3.93;;;;;;;;;;6189975;23;20180;-72
2022/01/21 15:34:36;;;;;;;11.60;4.07;;;;;;;;;;6187980;23;20172;-71
2022/01/21 15:37:04;;;;;;;13.53;4.73;;;;;;;;;;6215075;23;20180;-70
2022/01/21 15:39:35;;;;;;;17.20;6.13;;;;;;;;;;6188982;23;20187;-70
2022/01/21 15:42:03;;;;;;;14.87;6.13;;;;;;;;;;6214459;23;20175;-71
2022/01/21 15:44:31;;;;;;;13.87;4.53;;;;;;;;;;6215393;23;20188;-73
2022/01/21 15:46:58;;;;;;;9.83;4.80;;;;;;;;;;6215475;23;20180;-74
2022/01/21 15:49:26;;;;;;;12.80;5.07;;;;;;;;;;6188478;23;20190;-67
2022/01/21 15:51:55;;;;;;;12.50;5.10;;;;;;;;;;6215205;23;20259;-70
2022/01/21 15:54:23;;;;;;;11.70;5.33;;;;;;;;;;6215382;23;20184;-71
2022/01/21 15:56:51;;;;;;;12.70;4.83;;;;;;;;;;6215258;23;20628;-72
2022/01/21 15:59:21;;;;;;;10.70;3.83;;;;;;;;;;6215225;23;20187;-72
2022/01/21 16:01:48;;;;;;;9.27;3.60;;;;;;;;;;6215148;23;20681;-72
2022/01/21 16:04:16;;;;;;;12.40;5.20;;;;;;;;;;6187734;23;20204;-71
2022/01/21 16:06:45;;;;;;;11.43;5.17;;;;;;;;;;6213294;23;20547;-74